Weather at Chomutov Airfield

Public forecast

Using degrees Celsius for public forecast. Weather courtesy of forecast.io.

Closest aviation weather report (METAR) to Chomutov Airfield

Closest report is Karlovy Vary Airport, 26.5 nm (49.1 km) SW.

2024/05/25 18:00 (retrieved 17 minutes ago)

LKKV 251800Z 00000KT 9999 BCFG FEW002 12/12 Q1018

Closest aviation forecast (TAF) to Chomutov Airfield

Closest forecast is Karlovy Vary Airport, 26.5 nm (49.1 km) SW.

2024/05/25 18:23 (retrieved 0 seconds ago)

TAF LKKV 251700Z 2518/2618 31004KT 9999 SCT025 PROB30 2518/2519 6000 SHRA BKN017CB BECMG 2518/2520 VRB02KT BECMG 2519/2521 2000 BR SCT003 PROB30 TEMPO 2521/2603 0700 FG BKN003 BECMG 2604/2606 9999 SCT020 BECMG 2607/2609 17006KT